KSLK/SLK METAR and TAF weather

Enter ICAO airport designator
Station Type Date Time Source
KSLK METAR 2019/06/17 03:51 UTC NOAA

KSLK 170351Z AUTO 00000KT 10SM BKN034 09/08 A2991 RMK AO2 SLP128 T00940083


Station Type Date Time Source
KSLK Decoded METAR 2019/06/17 03:51 UTC NOAA

ADIRONDACK REGIONAL AIRPORT, NY, United States (KSLK) 44-24N 074-12W 498M
Jun 16, 2019 - 11:51 PM EDT / 2019.06.17 0351 UTC
Wind: Calm:0
Visibility: 10 mile(s):0
Sky conditions: mostly cloudy
Temperature: 48.9 F (9.4 C)
Dew Point: 46.9 F (8.3 C)
Relative Humidity: 92%
Pressure (altimeter): 29.91 in. Hg (1012 hPa)
ob: KSLK 170351Z AUTO 00000KT 10SM BKN034 09/08 A2991 RMK AO2 SLP128 T00940083
cycle: 4

Station Type Date Time Source
KSLK TAF 2019/06/16 18:22 UTC NOAA

TAF KSLK 161720Z 1618/1718 VRB03KT P6SM SCT200
FM170500 00000KT 2SM BR SCT003
FM170800 00000KT 1/2SM FG VV002
FM171200 27004KT P6SM SCT003 SCT050

Example: see airport list